sensor_id;sensor_type;location;lat;lon;timestamp;P1;durP1;ratioP1;P2;durP2;ratioP2
23720;SDS011;42950;52.134;5.578;2023-07-20T00:01:27;8.48;;;5.15;;
23720;SDS011;42950;52.134;5.578;2023-07-20T00:03:53;5.95;;;4.70;;
23720;SDS011;42950;52.134;5.578;2023-07-20T00:06:22;5.60;;;4.53;;
23720;SDS011;42950;52.134;5.578;2023-07-20T00:08:49;4.70;;;4.28;;
23720;SDS011;42950;52.134;5.578;2023-07-20T00:11:14;5.95;;;4.80;;
23720;SDS011;42950;52.134;5.578;2023-07-20T00:13:41;4.00;;;3.60;;
23720;SDS011;42950;52.134;5.578;2023-07-20T00:16:06;4.65;;;4.18;;
23720;SDS011;42950;52.134;5.578;2023-07-20T00:18:32;6.00;;;4.25;;
23720;SDS011;42950;52.134;5.578;2023-07-20T00:20:59;5.50;;;3.75;;
23720;SDS011;42950;52.134;5.578;2023-07-20T00:23:25;4.22;;;3.75;;
23720;SDS011;42950;52.134;5.578;2023-07-20T00:25:51;3.60;;;3.30;;
23720;SDS011;42950;52.134;5.578;2023-07-20T00:28:17;5.13;;;3.83;;
23720;SDS011;42950;52.134;5.578;2023-07-20T00:30:42;4.90;;;3.13;;
23720;SDS011;42950;52.134;5.578;2023-07-20T00:33:11;4.22;;;3.38;;
23720;SDS011;42950;52.134;5.578;2023-07-20T00:35:40;3.47;;;2.92;;
23720;SDS011;42950;52.134;5.578;2023-07-20T00:38:06;4.03;;;3.40;;
23720;SDS011;42950;52.134;5.578;2023-07-20T00:40:35;4.65;;;2.97;;
23720;SDS011;42950;52.134;5.578;2023-07-20T00:43:04;2.78;;;2.58;;
23720;SDS011;42950;52.134;5.578;2023-07-20T00:45:33;4.88;;;2.70;;
23720;SDS011;42950;52.134;5.578;2023-07-20T00:48:01;2.80;;;2.60;;
23720;SDS011;42950;52.134;5.578;2023-07-20T00:50:27;2.80;;;2.47;;
23720;SDS011;42950;52.134;5.578;2023-07-20T00:52:57;2.80;;;2.60;;
23720;SDS011;42950;52.134;5.578;2023-07-20T00:55:23;2.55;;;2.35;;
23720;SDS011;42950;52.134;5.578;2023-07-20T00:57:50;2.20;;;2.03;;
23720;SDS011;42950;52.134;5.578;2023-07-20T01:00:17;2.40;;;2.20;;
23720;SDS011;42950;52.134;5.578;2023-07-20T01:02:44;2.70;;;2.50;;
23720;SDS011;42950;52.134;5.578;2023-07-20T01:05:10;4.20;;;2.63;;
23720;SDS011;42950;52.134;5.578;2023-07-20T01:10:51;2.30;;;2.10;;
23720;SDS011;42950;52.134;5.578;2023-07-20T01:13:22;2.50;;;2.30;;
23720;SDS011;42950;52.134;5.578;2023-07-20T01:15:49;2.90;;;2.05;;
23720;SDS011;42950;52.134;5.578;2023-07-20T01:18:18;1.90;;;1.80;;
23720;SDS011;42950;52.134;5.578;2023-07-20T01:20:44;2.17;;;2.08;;
23720;SDS011;42950;52.134;5.578;2023-07-20T01:23:26;3.40;;;2.10;;
23720;SDS011;42950;52.134;5.578;2023-07-20T01:29:03;4.05;;;2.40;;
23720;SDS011;42950;52.134;5.578;2023-07-20T01:31:53;3.50;;;2.00;;
23720;SDS011;42950;52.134;5.578;2023-07-20T01:34:21;2.38;;;2.17;;
23720;SDS011;42950;52.134;5.578;2023-07-20T01:36:49;2.53;;;2.33;;
23720;SDS011;42950;52.134;5.578;2023-07-20T01:39:17;2.50;;;2.30;;
23720;SDS011;42950;52.134;5.578;2023-07-20T01:41:45;2.20;;;2.10;;
23720;SDS011;42950;52.134;5.578;2023-07-20T01:44:12;2.35;;;2.15;;
23720;SDS011;42950;52.134;5.578;2023-07-20T01:46:38;2.40;;;2.20;;
23720;SDS011;42950;52.134;5.578;2023-07-20T01:49:03;2.78;;;2.53;;
23720;SDS011;42950;52.134;5.578;2023-07-20T01:51:29;2.17;;;2.08;;
23720;SDS011;42950;52.134;5.578;2023-07-20T01:53:54;2.40;;;2.30;;
23720;SDS011;42950;52.134;5.578;2023-07-20T01:56:20;2.80;;;2.60;;
23720;SDS011;42950;52.134;5.578;2023-07-20T01:58:46;2.70;;;2.50;;
23720;SDS011;42950;52.134;5.578;2023-07-20T02:01:12;2.80;;;2.60;;
23720;SDS011;42950;52.134;5.578;2023-07-20T02:03:38;2.47;;;2.38;;
23720;SDS011;42950;52.134;5.578;2023-07-20T02:06:04;3.92;;;2.50;;
23720;SDS011;42950;52.134;5.578;2023-07-20T02:08:29;3.47;;;2.17;;
23720;SDS011;42950;52.134;5.578;2023-07-20T02:10:56;2.55;;;2.38;;
23720;SDS011;42950;52.134;5.578;2023-07-20T02:13:22;4.60;;;2.30;;
23720;SDS011;42950;52.134;5.578;2023-07-20T02:15:48;3.08;;;2.35;;
23720;SDS011;42950;52.134;5.578;2023-07-20T02:18:14;2.50;;;2.30;;
23720;SDS011;42950;52.134;5.578;2023-07-20T02:20:40;2.97;;;2.67;;
23720;SDS011;42950;52.134;5.578;2023-07-20T02:23:07;2.40;;;2.20;;
23720;SDS011;42950;52.134;5.578;2023-07-20T02:25:33;2.60;;;2.40;;
23720;SDS011;42950;52.134;5.578;2023-07-20T02:27:58;2.60;;;2.40;;
23720;SDS011;42950;52.134;5.578;2023-07-20T02:30:25;2.40;;;2.30;;
23720;SDS011;42950;52.134;5.578;2023-07-20T02:32:52;2.75;;;2.55;;
23720;SDS011;42950;52.134;5.578;2023-07-20T02:35:17;2.50;;;2.30;;
23720;SDS011;42950;52.134;5.578;2023-07-20T02:37:44;3.72;;;2.97;;
23720;SDS011;42950;52.134;5.578;2023-07-20T02:40:10;3.22;;;3.03;;
23720;SDS011;42950;52.134;5.578;2023-07-20T02:42:36;4.53;;;2.92;;
23720;SDS011;42950;52.134;5.578;2023-07-20T02:45:02;3.88;;;3.58;;
23720;SDS011;42950;52.134;5.578;2023-07-20T02:47:29;3.45;;;3.15;;
23720;SDS011;42950;52.134;5.578;2023-07-20T02:49:55;4.50;;;3.25;;
23720;SDS011;42950;52.134;5.578;2023-07-20T02:52:20;3.17;;;2.95;;
23720;SDS011;42950;52.134;5.578;2023-07-20T02:54:46;3.38;;;3.17;;
23720;SDS011;42950;52.134;5.578;2023-07-20T02:57:12;3.40;;;3.10;;
23720;SDS011;42950;52.134;5.578;2023-07-20T02:59:38;3.15;;;2.95;;
23720;SDS011;42950;52.134;5.578;2023-07-20T03:02:04;2.95;;;2.75;;
23720;SDS011;42950;52.134;5.578;2023-07-20T03:04:30;3.15;;;2.90;;
23720;SDS011;42950;52.134;5.578;2023-07-20T03:06:56;2.80;;;2.60;;
23720;SDS011;42950;52.134;5.578;2023-07-20T03:09:21;3.00;;;2.80;;
23720;SDS011;42950;52.134;5.578;2023-07-20T03:11:47;3.35;;;2.72;;
23720;SDS011;42950;52.134;5.578;2023-07-20T03:14:13;3.38;;;3.08;;
23720;SDS011;42950;52.134;5.578;2023-07-20T03:16:39;3.60;;;3.10;;
23720;SDS011;42950;52.134;5.578;2023-07-20T03:19:05;2.90;;;2.70;;
23720;SDS011;42950;52.134;5.578;2023-07-20T03:21:30;3.28;;;2.83;;
23720;SDS011;42950;52.134;5.578;2023-07-20T03:23:56;3.15;;;2.75;;
23720;SDS011;42950;52.134;5.578;2023-07-20T03:26:22;3.05;;;2.80;;
23720;SDS011;42950;52.134;5.578;2023-07-20T03:28:48;3.38;;;3.08;;
23720;SDS011;42950;52.134;5.578;2023-07-20T03:31:14;3.70;;;3.38;;
23720;SDS011;42950;52.134;5.578;2023-07-20T03:33:40;4.18;;;3.40;;
23720;SDS011;42950;52.134;5.578;2023-07-20T03:36:05;3.60;;;3.30;;
23720;SDS011;42950;52.134;5.578;2023-07-20T03:38:31;3.42;;;3.20;;
23720;SDS011;42950;52.134;5.578;2023-07-20T03:40:59;4.00;;;3.70;;
23720;SDS011;42950;52.134;5.578;2023-07-20T03:43:26;4.43;;;4.03;;
23720;SDS011;42950;52.134;5.578;2023-07-20T03:45:52;4.65;;;4.22;;
23720;SDS011;42950;52.134;5.578;2023-07-20T03:48:20;4.53;;;4.13;;
23720;SDS011;42950;52.134;5.578;2023-07-20T03:50:48;3.85;;;3.55;;
23720;SDS011;42950;52.134;5.578;2023-07-20T03:53:15;4.50;;;3.83;;
23720;SDS011;42950;52.134;5.578;2023-07-20T03:55:44;6.32;;;3.75;;
23720;SDS011;42950;52.134;5.578;2023-07-20T03:58:20;4.03;;;3.72;;
23720;SDS011;42950;52.134;5.578;2023-07-20T04:00:46;4.28;;;3.88;;
23720;SDS011;42950;52.134;5.578;2023-07-20T04:03:14;4.60;;;4.10;;
23720;SDS011;42950;52.134;5.578;2023-07-20T04:05:40;5.68;;;3.50;;
23720;SDS011;42950;52.134;5.578;2023-07-20T04:08:05;3.80;;;3.50;;
23720;SDS011;42950;52.134;5.578;2023-07-20T04:10:32;3.95;;;3.20;;
23720;SDS011;42950;52.134;5.578;2023-07-20T04:12:58;5.15;;;3.42;;
23720;SDS011;42950;52.134;5.578;2023-07-20T04:15:23;3.92;;;3.63;;
23720;SDS011;42950;52.134;5.578;2023-07-20T04:17:49;7.93;;;4.50;;
23720;SDS011;42950;52.134;5.578;2023-07-20T04:20:15;4.25;;;3.95;;
23720;SDS011;42950;52.134;5.578;2023-07-20T04:22:40;5.00;;;4.10;;
23720;SDS011;42950;52.134;5.578;2023-07-20T04:25:06;4.03;;;3.45;;
23720;SDS011;42950;52.134;5.578;2023-07-20T04:27:32;4.45;;;3.95;;
23720;SDS011;42950;52.134;5.578;2023-07-20T04:29:58;5.13;;;3.70;;
23720;SDS011;42950;52.134;5.578;2023-07-20T04:32:27;4.40;;;4.00;;
23720;SDS011;42950;52.134;5.578;2023-07-20T04:34:53;4.32;;;3.70;;
23720;SDS011;42950;52.134;5.578;2023-07-20T04:37:18;3.72;;;3.42;;
23720;SDS011;42950;52.134;5.578;2023-07-20T04:39:44;6.43;;;4.07;;
23720;SDS011;42950;52.134;5.578;2023-07-20T04:42:09;3.97;;;3.40;;
23720;SDS011;42950;52.134;5.578;2023-07-20T04:44:36;4.30;;;3.90;;
23720;SDS011;42950;52.134;5.578;2023-07-20T04:47:02;6.50;;;3.78;;
23720;SDS011;42950;52.134;5.578;2023-07-20T04:49:28;9.20;;;4.13;;
23720;SDS011;42950;52.134;5.578;2023-07-20T04:51:53;4.60;;;4.00;;
23720;SDS011;42950;52.134;5.578;2023-07-20T04:54:19;5.70;;;4.03;;
23720;SDS011;42950;52.134;5.578;2023-07-20T04:56:45;4.43;;;3.95;;
23720;SDS011;42950;52.134;5.578;2023-07-20T04:59:11;5.28;;;4.00;;
23720;SDS011;42950;52.134;5.578;2023-07-20T05:01:36;5.88;;;4.60;;
23720;SDS011;42950;52.134;5.578;2023-07-20T05:04:02;8.02;;;4.35;;
23720;SDS011;42950;52.134;5.578;2023-07-20T05:06:28;9.38;;;4.15;;
23720;SDS011;42950;52.134;5.578;2023-07-20T05:08:54;8.40;;;3.95;;
23720;SDS011;42950;52.134;5.578;2023-07-20T05:11:21;5.22;;;3.78;;
23720;SDS011;42950;52.134;5.578;2023-07-20T05:13:47;3.80;;;3.47;;
23720;SDS011;42950;52.134;5.578;2023-07-20T05:16:13;4.10;;;3.53;;
23720;SDS011;42950;52.134;5.578;2023-07-20T05:18:38;3.95;;;3.53;;
23720;SDS011;42950;52.134;5.578;2023-07-20T05:21:05;4.00;;;3.70;;
23720;SDS011;42950;52.134;5.578;2023-07-20T05:23:31;3.38;;;3.03;;
23720;SDS011;42950;52.134;5.578;2023-07-20T05:25:57;7.18;;;3.92;;
23720;SDS011;42950;52.134;5.578;2023-07-20T05:28:24;6.78;;;3.70;;
23720;SDS011;42950;52.134;5.578;2023-07-20T05:30:50;5.35;;;3.55;;
23720;SDS011;42950;52.134;5.578;2023-07-20T05:33:19;7.13;;;3.40;;
23720;SDS011;42950;52.134;5.578;2023-07-20T05:35:45;3.45;;;3.15;;
23720;SDS011;42950;52.134;5.578;2023-07-20T05:38:12;5.85;;;3.67;;
23720;SDS011;42950;52.134;5.578;2023-07-20T05:40:42;5.80;;;3.85;;
23720;SDS011;42950;52.134;5.578;2023-07-20T05:43:09;7.95;;;4.00;;
23720;SDS011;42950;52.134;5.578;2023-07-20T05:45:35;6.35;;;3.70;;
23720;SDS011;42950;52.134;5.578;2023-07-20T05:48:01;6.97;;;3.63;;
23720;SDS011;42950;52.134;5.578;2023-07-20T05:50:27;6.32;;;4.00;;
23720;SDS011;42950;52.134;5.578;2023-07-20T05:52:53;5.82;;;3.50;;
23720;SDS011;42950;52.134;5.578;2023-07-20T05:55:19;6.18;;;3.80;;
23720;SDS011;42950;52.134;5.578;2023-07-20T05:57:45;6.05;;;3.60;;
23720;SDS011;42950;52.134;5.578;2023-07-20T06:00:11;5.05;;;3.70;;
23720;SDS011;42950;52.134;5.578;2023-07-20T06:02:38;4.35;;;3.60;;
23720;SDS011;42950;52.134;5.578;2023-07-20T06:05:06;5.38;;;3.80;;
23720;SDS011;42950;52.134;5.578;2023-07-20T06:07:38;4.97;;;3.55;;
23720;SDS011;42950;52.134;5.578;2023-07-20T06:10:04;3.50;;;3.20;;
23720;SDS011;42950;52.134;5.578;2023-07-20T06:12:31;7.15;;;3.70;;
23720;SDS011;42950;52.134;5.578;2023-07-20T06:14:57;4.43;;;3.65;;
23720;SDS011;42950;52.134;5.578;2023-07-20T06:17:28;2.25;;;2.00;;
23720;SDS011;42950;52.134;5.578;2023-07-20T06:19:54;3.47;;;3.00;;
23720;SDS011;42950;52.134;5.578;2023-07-20T06:22:20;4.28;;;2.60;;
23720;SDS011;42950;52.134;5.578;2023-07-20T06:24:46;3.47;;;2.40;;
23720;SDS011;42950;52.134;5.578;2023-07-20T06:27:11;3.67;;;3.00;;
23720;SDS011;42950;52.134;5.578;2023-07-20T06:29:37;2.67;;;2.20;;
23720;SDS011;42950;52.134;5.578;2023-07-20T06:32:04;2.85;;;2.60;;
23720;SDS011;42950;52.134;5.578;2023-07-20T06:34:30;2.75;;;2.55;;
23720;SDS011;42950;52.134;5.578;2023-07-20T06:36:56;4.05;;;2.92;;
23720;SDS011;42950;52.134;5.578;2023-07-20T06:39:21;3.28;;;2.10;;
23720;SDS011;42950;52.134;5.578;2023-07-20T06:41:47;2.55;;;1.60;;
23720;SDS011;42950;52.134;5.578;2023-07-20T06:44:14;1.65;;;1.55;;
23720;SDS011;42950;52.134;5.578;2023-07-20T06:46:40;2.25;;;1.58;;
23720;SDS011;42950;52.134;5.578;2023-07-20T06:49:06;1.75;;;1.58;;
23720;SDS011;42950;52.134;5.578;2023-07-20T06:51:34;3.30;;;1.67;;
23720;SDS011;42950;52.134;5.578;2023-07-20T06:54:00;2.15;;;1.70;;
23720;SDS011;42950;52.134;5.578;2023-07-20T06:56:26;1.70;;;1.60;;
23720;SDS011;42950;52.134;5.578;2023-07-20T06:58:54;1.90;;;1.80;;
23720;SDS011;42950;52.134;5.578;2023-07-20T07:01:20;3.40;;;1.92;;
23720;SDS011;42950;52.134;5.578;2023-07-20T07:03:47;3.25;;;1.50;;
23720;SDS011;42950;52.134;5.578;2023-07-20T07:06:13;4.88;;;1.63;;
23720;SDS011;42950;52.134;5.578;2023-07-20T07:08:44;1.50;;;1.40;;
23720;SDS011;42950;52.134;5.578;2023-07-20T07:11:10;2.03;;;1.30;;
23720;SDS011;42950;52.134;5.578;2023-07-20T07:13:36;2.58;;;1.20;;
23720;SDS011;42950;52.134;5.578;2023-07-20T07:16:01;1.98;;;1.38;;
23720;SDS011;42950;52.134;5.578;2023-07-20T07:18:27;2.08;;;1.17;;
23720;SDS011;42950;52.134;5.578;2023-07-20T07:20:53;2.45;;;1.05;;
23720;SDS011;42950;52.134;5.578;2023-07-20T07:23:19;1.55;;;0.95;;
23720;SDS011;42950;52.134;5.578;2023-07-20T07:25:44;0.77;;;0.70;;
23720;SDS011;42950;52.134;5.578;2023-07-20T07:28:10;1.23;;;1.00;;
23720;SDS011;42950;52.134;5.578;2023-07-20T07:30:37;1.88;;;1.17;;
23720;SDS011;42950;52.134;5.578;2023-07-20T07:33:04;1.20;;;0.80;;
23720;SDS011;42950;52.134;5.578;2023-07-20T07:35:30;1.00;;;0.90;;
23720;SDS011;42950;52.134;5.578;2023-07-20T07:37:56;2.22;;;1.10;;
23720;SDS011;42950;52.134;5.578;2023-07-20T07:40:21;2.25;;;0.90;;
23720;SDS011;42950;52.134;5.578;2023-07-20T07:42:47;2.45;;;0.80;;
23720;SDS011;42950;52.134;5.578;2023-07-20T07:45:12;0.60;;;0.60;;
23720;SDS011;42950;52.134;5.578;2023-07-20T07:47:39;1.02;;;0.70;;
23720;SDS011;42950;52.134;5.578;2023-07-20T07:50:05;1.92;;;0.80;;
23720;SDS011;42950;52.134;5.578;2023-07-20T07:52:31;1.92;;;0.70;;
23720;SDS011;42950;52.134;5.578;2023-07-20T07:54:57;1.63;;;0.98;;
23720;SDS011;42950;52.134;5.578;2023-07-20T07:57:23;1.17;;;0.90;;
23720;SDS011;42950;52.134;5.578;2023-07-20T07:59:49;1.95;;;0.82;;
23720;SDS011;42950;52.134;5.578;2023-07-20T08:02:15;2.33;;;1.00;;
23720;SDS011;42950;52.134;5.578;2023-07-20T08:04:41;2.85;;;1.00;;
23720;SDS011;42950;52.134;5.578;2023-07-20T08:07:06;2.72;;;1.05;;
23720;SDS011;42950;52.134;5.578;2023-07-20T08:09:32;1.42;;;1.00;;
23720;SDS011;42950;52.134;5.578;2023-07-20T08:11:58;2.05;;;0.77;;
23720;SDS011;42950;52.134;5.578;2023-07-20T08:14:24;0.77;;;0.60;;
23720;SDS011;42950;52.134;5.578;2023-07-20T08:16:50;0.50;;;0.30;;
23720;SDS011;42950;52.134;5.578;2023-07-20T08:19:15;1.17;;;0.50;;
23720;SDS011;42950;52.134;5.578;2023-07-20T08:21:41;0.85;;;0.40;;
23720;SDS011;42950;52.134;5.578;2023-07-20T08:24:08;1.00;;;0.60;;
23720;SDS011;42950;52.134;5.578;2023-07-20T08:26:34;1.00;;;0.43;;
23720;SDS011;42950;52.134;5.578;2023-07-20T08:28:59;0.65;;;0.50;;
23720;SDS011;42950;52.134;5.578;2023-07-20T08:31:25;0.75;;;0.50;;
23720;SDS011;42950;52.134;5.578;2023-07-20T08:33:53;2.78;;;0.57;;
23720;SDS011;42950;52.134;5.578;2023-07-20T08:36:20;1.10;;;0.40;;
23720;SDS011;42950;52.134;5.578;2023-07-20T08:38:45;0.43;;;0.30;;
23720;SDS011;42950;52.134;5.578;2023-07-20T08:41:11;0.55;;;0.32;;
23720;SDS011;42950;52.134;5.578;2023-07-20T08:43:37;0.50;;;0.50;;
23720;SDS011;42950;52.134;5.578;2023-07-20T08:46:09;1.10;;;0.47;;
23720;SDS011;42950;52.134;5.578;2023-07-20T08:48:36;0.93;;;0.30;;
23720;SDS011;42950;52.134;5.578;2023-07-20T08:51:03;0.93;;;0.40;;
23720;SDS011;42950;52.134;5.578;2023-07-20T08:53:29;0.93;;;0.40;;
23720;SDS011;42950;52.134;5.578;2023-07-20T08:55:57;1.38;;;0.60;;
23720;SDS011;42950;52.134;5.578;2023-07-20T08:58:25;1.55;;;0.68;;
23720;SDS011;42950;52.134;5.578;2023-07-20T09:00:52;1.58;;;0.63;;
23720;SDS011;42950;52.134;5.578;2023-07-20T09:03:19;1.33;;;0.80;;
23720;SDS011;42950;52.134;5.578;2023-07-20T09:05:44;0.90;;;0.70;;
23720;SDS011;42950;52.134;5.578;2023-07-20T09:08:10;1.02;;;0.70;;
23720;SDS011;42950;52.134;5.578;2023-07-20T09:10:36;4.78;;;0.80;;
23720;SDS011;42950;52.134;5.578;2023-07-20T09:13:02;2.88;;;0.88;;
23720;SDS011;42950;52.134;5.578;2023-07-20T09:15:28;0.98;;;0.60;;
23720;SDS011;42950;52.134;5.578;2023-07-20T09:17:55;1.10;;;0.52;;
23720;SDS011;42950;52.134;5.578;2023-07-20T09:20:21;1.88;;;0.40;;
23720;SDS011;42950;52.134;5.578;2023-07-20T09:22:47;0.40;;;0.38;;
23720;SDS011;42950;52.134;5.578;2023-07-20T09:25:16;2.08;;;0.65;;
23720;SDS011;42950;52.134;5.578;2023-07-20T09:27:43;0.57;;;0.50;;
23720;SDS011;42950;52.134;5.578;2023-07-20T09:30:11;1.02;;;0.50;;
23720;SDS011;42950;52.134;5.578;2023-07-20T09:32:46;1.77;;;0.60;;
23720;SDS011;42950;52.134;5.578;2023-07-20T09:35:13;1.02;;;0.57;;
23720;SDS011;42950;52.134;5.578;2023-07-20T09:37:46;0.68;;;0.47;;
23720;SDS011;42950;52.134;5.578;2023-07-20T09:40:17;1.80;;;0.75;;
23720;SDS011;42950;52.134;5.578;2023-07-20T09:42:43;0.57;;;0.30;;
23720;SDS011;42950;52.134;5.578;2023-07-20T09:45:09;0.57;;;0.30;;
23720;SDS011;42950;52.134;5.578;2023-07-20T09:47:35;0.45;;;0.38;;
23720;SDS011;42950;52.134;5.578;2023-07-20T09:50:06;0.93;;;0.50;;
23720;SDS011;42950;52.134;5.578;2023-07-20T09:52:41;1.17;;;0.52;;
23720;SDS011;42950;52.134;5.578;2023-07-20T09:55:09;0.73;;;0.52;;
23720;SDS011;42950;52.134;5.578;2023-07-20T09:57:36;2.55;;;0.60;;
23720;SDS011;42950;52.134;5.578;2023-07-20T10:00:04;1.20;;;0.40;;
23720;SDS011;42950;52.134;5.578;2023-07-20T10:02:41;0.63;;;0.40;;
23720;SDS011;42950;52.134;5.578;2023-07-20T10:05:11;0.50;;;0.50;;
23720;SDS011;42950;52.134;5.578;2023-07-20T10:07:48;1.30;;;0.50;;
23720;SDS011;42950;52.134;5.578;2023-07-20T10:10:15;0.82;;;0.55;;
23720;SDS011;42950;52.134;5.578;2023-07-20T10:12:44;0.57;;;0.40;;
23720;SDS011;42950;52.134;5.578;2023-07-20T10:15:33;2.88;;;0.60;;
23720;SDS011;42950;52.134;5.578;2023-07-20T10:20:56;2.92;;;0.82;;
23720;SDS011;42950;52.134;5.578;2023-07-20T10:23:24;0.75;;;0.32;;
23720;SDS011;42950;52.134;5.578;2023-07-20T10:25:53;0.88;;;0.38;;
23720;SDS011;42950;52.134;5.578;2023-07-20T10:28:19;1.42;;;0.43;;
23720;SDS011;42950;52.134;5.578;2023-07-20T10:30:48;1.42;;;0.57;;
23720;SDS011;42950;52.134;5.578;2023-07-20T10:33:15;1.15;;;0.52;;
23720;SDS011;42950;52.134;5.578;2023-07-20T10:35:54;0.45;;;0.45;;
23720;SDS011;42950;52.134;5.578;2023-07-20T10:44:06;2.70;;;0.60;;
23720;SDS011;42950;52.134;5.578;2023-07-20T10:46:34;1.23;;;0.40;;
23720;SDS011;42950;52.134;5.578;2023-07-20T10:49:08;2.17;;;0.65;;
23720;SDS011;42950;52.134;5.578;2023-07-20T10:54:54;1.00;;;0.50;;
23720;SDS011;42950;52.134;5.578;2023-07-20T10:56:58;2.92;;;0.40;;
23720;SDS011;42950;52.134;5.578;2023-07-20T10:59:47;3.05;;;0.60;;
23720;SDS011;42950;52.134;5.578;2023-07-20T11:02:17;3.70;;;0.63;;
23720;SDS011;42950;52.134;5.578;2023-07-20T11:04:47;1.33;;;0.40;;
23720;SDS011;42950;52.134;5.578;2023-07-20T11:07:17;0.98;;;0.50;;
23720;SDS011;42950;52.134;5.578;2023-07-20T11:10:14;1.23;;;0.50;;
23720;SDS011;42950;52.134;5.578;2023-07-20T11:12:40;0.30;;;0.30;;
23720;SDS011;42950;52.134;5.578;2023-07-20T11:15:06;0.80;;;0.32;;
23720;SDS011;42950;52.134;5.578;2023-07-20T11:17:32;0.38;;;0.30;;
23720;SDS011;42950;52.134;5.578;2023-07-20T11:19:59;2.67;;;0.30;;
23720;SDS011;42950;52.134;5.578;2023-07-20T11:22:26;0.93;;;0.20;;
23720;SDS011;42950;52.134;5.578;2023-07-20T11:24:55;0.55;;;0.30;;
23720;SDS011;42950;52.134;5.578;2023-07-20T11:27:21;0.50;;;0.30;;
23720;SDS011;42950;52.134;5.578;2023-07-20T11:29:47;1.02;;;0.30;;
23720;SDS011;42950;52.134;5.578;2023-07-20T11:32:20;0.77;;;0.30;;
23720;SDS011;42950;52.134;5.578;2023-07-20T11:34:48;0.30;;;0.30;;
23720;SDS011;42950;52.134;5.578;2023-07-20T11:37:15;0.82;;;0.30;;
23720;SDS011;42950;52.134;5.578;2023-07-20T11:39:42;1.38;;;0.43;;
23720;SDS011;42950;52.134;5.578;2023-07-20T11:42:07;1.50;;;0.40;;
23720;SDS011;42950;52.134;5.578;2023-07-20T11:44:34;1.75;;;0.50;;
23720;SDS011;42950;52.134;5.578;2023-07-20T11:47:09;0.40;;;0.40;;
23720;SDS011;42950;52.134;5.578;2023-07-20T11:49:40;0.45;;;0.30;;
23720;SDS011;42950;52.134;5.578;2023-07-20T11:52:07;1.80;;;0.30;;
23720;SDS011;42950;52.134;5.578;2023-07-20T11:54:34;0.65;;;0.28;;
23720;SDS011;42950;52.134;5.578;2023-07-20T11:57:03;0.52;;;0.20;;
23720;SDS011;42950;52.134;5.578;2023-07-20T11:59:30;0.30;;;0.30;;
23720;SDS011;42950;52.134;5.578;2023-07-20T12:01:57;0.57;;;0.30;;
23720;SDS011;42950;52.134;5.578;2023-07-20T12:04:31;1.40;;;0.40;;
23720;SDS011;42950;52.134;5.578;2023-07-20T12:06:57;2.30;;;0.50;;
23720;SDS011;42950;52.134;5.578;2023-07-20T12:09:24;1.65;;;0.20;;
23720;SDS011;42950;52.134;5.578;2023-07-20T12:11:49;0.93;;;0.40;;
23720;SDS011;42950;52.134;5.578;2023-07-20T12:14:15;1.27;;;0.43;;
23720;SDS011;42950;52.134;5.578;2023-07-20T12:16:42;1.08;;;0.40;;
23720;SDS011;42950;52.134;5.578;2023-07-20T12:19:09;1.27;;;0.35;;
23720;SDS011;42950;52.134;5.578;2023-07-20T12:21:37;0.63;;;0.40;;
23720;SDS011;42950;52.134;5.578;2023-07-20T12:24:08;1.70;;;0.30;;
23720;SDS011;42950;52.134;5.578;2023-07-20T12:26:35;0.88;;;0.50;;
23720;SDS011;42950;52.134;5.578;2023-07-20T12:29:01;0.65;;;0.40;;
23720;SDS011;42950;52.134;5.578;2023-07-20T12:31:29;1.42;;;0.40;;
23720;SDS011;42950;52.134;5.578;2023-07-20T12:33:56;3.03;;;0.32;;
23720;SDS011;42950;52.134;5.578;2023-07-20T12:36:23;1.65;;;0.40;;
23720;SDS011;42950;52.134;5.578;2023-07-20T12:38:49;0.30;;;0.20;;
23720;SDS011;42950;52.134;5.578;2023-07-20T12:41:16;0.25;;;0.10;;
23720;SDS011;42950;52.134;5.578;2023-07-20T12:43:43;1.70;;;0.22;;
23720;SDS011;42950;52.134;5.578;2023-07-20T12:46:10;1.98;;;0.40;;
23720;SDS011;42950;52.134;5.578;2023-07-20T12:48:37;0.50;;;0.25;;
23720;SDS011;42950;52.134;5.578;2023-07-20T12:51:05;0.82;;;0.40;;
23720;SDS011;42950;52.134;5.578;2023-07-20T12:53:31;0.98;;;0.22;;
23720;SDS011;42950;52.134;5.578;2023-07-20T12:55:58;0.77;;;0.40;;
23720;SDS011;42950;52.134;5.578;2023-07-20T12:58:24;1.75;;;0.50;;
23720;SDS011;42950;52.134;5.578;2023-07-20T13:00:50;0.85;;;0.30;;
23720;SDS011;42950;52.134;5.578;2023-07-20T13:03:16;0.60;;;0.32;;
23720;SDS011;42950;52.134;5.578;2023-07-20T13:05:44;0.82;;;0.35;;
23720;SDS011;42950;52.134;5.578;2023-07-20T13:08:10;0.30;;;0.30;;
23720;SDS011;42950;52.134;5.578;2023-07-20T13:10:38;0.82;;;0.28;;
23720;SDS011;42950;52.134;5.578;2023-07-20T13:13:04;0.57;;;0.20;;
23720;SDS011;42950;52.134;5.578;2023-07-20T13:15:31;0.40;;;0.20;;
23720;SDS011;42950;52.134;5.578;2023-07-20T13:17:58;0.30;;;0.30;;
23720;SDS011;42950;52.134;5.578;2023-07-20T13:20:25;0.52;;;0.40;;
23720;SDS011;42950;52.134;5.578;2023-07-20T13:22:51;1.33;;;0.30;;
23720;SDS011;42950;52.134;5.578;2023-07-20T13:25:17;0.22;;;0.20;;
23720;SDS011;42950;52.134;5.578;2023-07-20T13:30:13;0.40;;;0.40;;
23720;SDS011;42950;52.134;5.578;2023-07-20T13:32:44;0.90;;;0.40;;
23720;SDS011;42950;52.134;5.578;2023-07-20T13:35:14;1.05;;;0.30;;
23720;SDS011;42950;52.134;5.578;2023-07-20T13:37:40;0.32;;;0.30;;
23720;SDS011;42950;52.134;5.578;2023-07-20T13:40:06;0.73;;;0.63;;
23720;SDS011;42950;52.134;5.578;2023-07-20T13:42:36;0.73;;;0.55;;
23720;SDS011;42950;52.134;5.578;2023-07-20T13:45:02;0.70;;;0.70;;
23720;SDS011;42950;52.134;5.578;2023-07-20T13:47:29;1.30;;;0.50;;
23720;SDS011;42950;52.134;5.578;2023-07-20T13:49:55;1.10;;;0.50;;
23720;SDS011;42950;52.134;5.578;2023-07-20T13:52:21;1.38;;;0.40;;
23720;SDS011;42950;52.134;5.578;2023-07-20T13:54:48;3.13;;;0.47;;
23720;SDS011;42950;52.134;5.578;2023-07-20T13:57:14;0.73;;;0.40;;
23720;SDS011;42950;52.134;5.578;2023-07-20T13:59:41;0.75;;;0.50;;
23720;SDS011;42950;52.134;5.578;2023-07-20T14:02:07;2.05;;;0.50;;
23720;SDS011;42950;52.134;5.578;2023-07-20T14:04:33;2.60;;;0.70;;
23720;SDS011;42950;52.134;5.578;2023-07-20T14:06:59;0.60;;;0.60;;
23720;SDS011;42950;52.134;5.578;2023-07-20T14:09:25;1.35;;;0.60;;
23720;SDS011;42950;52.134;5.578;2023-07-20T14:11:50;2.25;;;0.70;;
23720;SDS011;42950;52.134;5.578;2023-07-20T14:14:16;3.17;;;0.60;;
23720;SDS011;42950;52.134;5.578;2023-07-20T14:16:42;0.60;;;0.60;;
23720;SDS011;42950;52.134;5.578;2023-07-20T14:19:08;2.17;;;0.60;;
23720;SDS011;42950;52.134;5.578;2023-07-20T14:21:33;1.15;;;0.55;;
23720;SDS011;42950;52.134;5.578;2023-07-20T14:24:00;1.90;;;0.60;;
23720;SDS011;42950;52.134;5.578;2023-07-20T14:26:31;1.60;;;0.45;;
23720;SDS011;42950;52.134;5.578;2023-07-20T14:28:56;0.93;;;0.63;;
23720;SDS011;42950;52.134;5.578;2023-07-20T14:31:22;1.00;;;0.60;;
23720;SDS011;42950;52.134;5.578;2023-07-20T14:33:50;1.05;;;0.70;;
23720;SDS011;42950;52.134;5.578;2023-07-20T14:36:15;1.75;;;0.60;;
23720;SDS011;42950;52.134;5.578;2023-07-20T14:38:41;0.63;;;0.50;;
23720;SDS011;42950;52.134;5.578;2023-07-20T14:41:08;0.75;;;0.50;;
23720;SDS011;42950;52.134;5.578;2023-07-20T14:43:33;1.92;;;0.47;;
23720;SDS011;42950;52.134;5.578;2023-07-20T14:45:59;1.30;;;0.50;;
23720;SDS011;42950;52.134;5.578;2023-07-20T14:48:25;0.93;;;0.50;;
23720;SDS011;42950;52.134;5.578;2023-07-20T14:50:50;1.58;;;0.50;;
23720;SDS011;42950;52.134;5.578;2023-07-20T14:53:16;1.00;;;0.52;;
23720;SDS011;42950;52.134;5.578;2023-07-20T14:55:42;0.98;;;0.60;;
23720;SDS011;42950;52.134;5.578;2023-07-20T14:58:08;1.33;;;0.40;;
23720;SDS011;42950;52.134;5.578;2023-07-20T15:00:34;0.95;;;0.47;;
23720;SDS011;42950;52.134;5.578;2023-07-20T15:03:00;1.60;;;0.60;;
23720;SDS011;42950;52.134;5.578;2023-07-20T15:05:25;3.85;;;0.88;;
23720;SDS011;42950;52.134;5.578;2023-07-20T15:07:52;1.38;;;0.50;;